Haywood NorAM CEC Pursuit Day 2 2019 | Zone4.ca



Haywood NorAM CEC Pursuit Day 2 2019

Date: Feb 3, 2019
StartList
Location: Duntroon
Host Club: Highlands Trailblazers

Jury
Technical Delegate:  Jacques Dumont 
Chief of Competition:  Shawn Sinclair 
Asst TD  Pierrot Bernier 
App TD  Claude Laramee 
CCC Race Director  Dave Dyer 
Obs. Time: 08:00
Wind Vel: 21  km/hr  Wind Dir: SW
Air Temp: 1 C Snow Temp:
Weather: FreezingDrizzle Snow Cond: Wet packed

Open Men 15 km. Free Pursuit    
Bib Start Time Name SubCategory CCCLic DOB Club Team Diff
11 9:30:00.00 Alexis Dumas Senior Men 23580 1995 Skibec CNEPH +1:10.60
12 9:30:16.00 Andy Shields Senior Men 14504 1991 Lappe Nordic   +45.70
13 9:30:21.00 Philippe     Y Boucher Senior Men 27362 1997 Skibec CNEPH +19.90
14 9:30:24.00 Jack  Y Carlyle Senior Men 19782 1993 Soo Finnish AIAWCA  
15 9:30:30.00 Julien Locke Senior Men 21432 1993 Black Jack CNST +1:17.10
16 9:30:38.00 Antoine Briand Senior Men 23624 1995 Skibec CNEPH +2:40.50
17 9:30:43.00 Reed Godfrey Senior Men 29426 1998 Canmore Nordic Team R.A.D. +3:01.10
18 9:30:57.00 Dominique Moncion-Groulx Senior Men 19561 1993 Nakkertok Nordique (QC) Team R.A.D +1:32.30
19 9:31:05.00 Olivier Hamel Senior Men 25623 1996 Skibec CNEPH +1:21.60
20 9:31:06.00 Aidan Kirkham Senior Men 31823 1998 Nakkertok Nordic (ON) Carleton U +1:22.50
21 9:31:25.00 Samuel Greer Senior Men 25709 1996 Highlands Trailblazers NTDC TBay +10:50.00
22 9:31:29.00 Angus Foster Senior Men 23596 1995 Big Thunder Nordic NTDC TBay +3:49.10
23 9:31:31.00 Étienne Hébert Senior Men 29287 1998 Montériski AWCA ***
24 9:31:36.00 Levi Nadlersmith Senior Men 28191 1998 Downtown Nordic   +5:13.50
25 9:31:43.00 Pierre Grall-Johnson Junior Men 31045 1999 Nakkertok Nordic (ON) NTDC TBay  
26 9:31:48.00 Olivier Léveillé Junior Men 34101 2001 Orford QCST +35.44
27 9:32:03.00 John Lindfors Junior Men 31840 1999 Nakkertok Nordique (QC)   +1:13.40
28 9:32:06.00 Derek Deuling Junior Men 36524 2002 Whitehorse Ski Club YTST +39.98
29 9:32:31.00 Kai Meekis Junior Men 25593 2000 Big Thunder Nordic NTDC - Thunder Bay +45.20
30 9:32:40.00 Brendon Howard Senior Men 25712 1996 Nakkertok Nordic (ON) Carleton U +4:01.40
31 9:32:51.00 Ezra Pierce Junior Men 31058 1999 Nakkertok Nordic (ON) Carleton U +2:49.00
32 9:32:58.00 Alexander Maycock Junior Men 33728 1999 Mono Nordic Nipissing U +1:44.70
33 9:33:03.00 Matjaz Cigler Junior Men 31796 1999 U of A Nordic U of Alberta +5:05.00
34 9:33:08.00 Malcolm Thompson Junior Men 33113 2000 Big Thunder Nordic Lakehead U +3:48.00
35 9:33:14.00 Nicholas Bardak Senior Men 21503 1997 Rocky Mountain Racers   +4:09.10
36 9:33:16.00 Ben Milley Junior Men 33128 2000 Nakkertok Nordic (ON)   +1:45.10
37 9:33:23.00 Conor McGovern Junior Men 30215 1999 Red River Nordic Lakehead U +3:09.10
38 9:33:31.00 Colin Ward Senior Men 29432 1997 Halifax Nordic NSST/Carleton U +5:58.10
39 9:33:45.00 Geoffrey Way-Nee Senior Men 29401 1996 Big Thunder Nordic Lakehead U +5:44.39
40 9:33:48.00 Devon Pegrum Junior Men 37672 2000 Nakkertok Nordic (ON) Carleton U +1:53.20
41 9:34:01.00 Graham Daly Junior Men 31411 1999 Nakkertok Nordic (ON) U of Guelph +5:20.30
42 9:34:14.00 Matteo Reich Senior Men 29478 1998 Soo Finnish Laurentian U +8:19.90
43 9:34:25.00 Kayden Sim Senior Men 27437 1997 Hollyburn Ski Club Nipissing U +7:00.17
44 9:34:29.00 Sebastien Gingras Junior Men 29495 1999 Soo Finnish Nipissing U +6:21.70
45 9:34:29.00 Nicolas Moncion-Groulx Junior Men 31042 1999 Nakkertok Nordique (QC)   +2:58.80
46 9:34:30.00 Erikson Moore Junior Men 36436 2001 Fondeurs-Laurentides   +2:42.90
47 9:34:51.00 Robert Simpson-Spook Senior Men 25730 1995 Barrie Cross Country U of Guelph +8:41.40
48 9:35:03.00 Sasha Masson Junior Men 37224 2002 Whitehorse Ski Club YTST +2:07.20
49 9:35:11.00 Justin Croteau Junior Men 33131 2000 Nakkertok Nordique (QC)   +3:55.50
50 9:35:33.00 Levi Warkentine Senior Men 28640 1997 Boundary Trails Nordic Lakehead U +8:21.50
51 9:35:57.00 Simon Giasson Junior Men 31894 1999 Red River Nordic Nipissing U +8:38.10
52 9:36:01.00 Cameron Roe Senior Men 32889 1998 Red River Nordic Lakehead U +10:07.50
53 9:36:38.00 Stephen Flower Senior Men DL6 1975 Individual   +9:13.50
54 9:36:48.00 Isaac Alexander-Cook Senior Men DL14 1995 Waterloo Region U of Waterloo +9:29.90
55 9:48:00.00 Mike Huet Masters Men DL2 1958 Highlands Trailblazers   +5:10.00
56 9:36:56.00 Aleksi Luoma Junior Men 31785 2000 Big Thunder Nordic U of Waterloo +7:03.10
57 9:37:00.00 Graham Shearing Junior Men 31851 1999 Arrowhead Nordic Queen's +11:44.60
58 9:37:11.00 Nicholas  Cheney Junior Men 31809 1999 Nakkertok Nordic (ON) Queen's +5:30.10
59 9:37:13.00 Declan Barber Junior Men 31417 1999 Team Hardwood U of Guelph +10:36.60
60 9:37:18.00 Sander van Walraven Junior Men 33751 2000 Nakkertok Nordic (ON)   +9:59.80
61 9:37:24.00 Romeo Champagne Junior Men 37227 2002 Whitehorse Ski Club   +6:42.80
62 9:37:40.00 Eric Nussbaum Junior Men DL10 1999 Nakkertok Nordic (ON) Queen's ***
63 9:37:41.00 Ben Puskas Junior Men 37219 2002 Whitehorse Ski Club YTST +6:59.90
64 9:38:00.00 Noah Sullivan Junior Men 43082 2000 North Bay Nordic Nipissing U +9:18.40
65 9:38:08.00 Thomas Gore Senior Men DL50 1995 Laurentian Nordic Laurentian U +9:35.60
66 9:38:48.00 Paul Inkila Masters Men 12694 1960 Lappe Nordic   +26.70
67 9:38:54.00 Evan Kealey Junior Men 31044 1999 Nakkertok Nordic (ON)   +5:41.48
68 9:38:59.00 Aiden Tullio Junior Men DL52 1999 Carleton University Carleton U +10:49.50
69 9:39:00.00 Mattias Klassen Junior Men 38914 2000 Boundary Trails Nordic MBST +10:27.30
70 9:39:35.00 Nichollis Schmidt Junior Men 36496 2001 Whitehorse Ski Club YTST +6:10.70
71 9:40:22.00 Allan Magi Masters Men DL64 1963 Highlands Trailblazers   ***
72 9:40:36.00 Daniel Westbroek Junior Men DL25 1999 Kawartha Nordic Queen's +12:58.40
73 9:40:47.00 Joshua Cartmell Senior Men 37691 1997 Laurentian Nordic Laurentian U +13:24.00
74 9:40:55.00 Thomas Saville Senior Men DL37 1998 Carleton U Carleton U +12:46.20
75 9:40:56.00 Julian Alexander-Cook Senior Men DL7 1997 Queen's Nordic Queen's +14:54.80
76 9:41:15.00 Nathan Johnstone Senior Men 31798 1998 Arrowhead Nordic U of Guelph +13:35.00
77 9:41:18.00 Martin Rydlo Masters Men 2634 1970 Highlands Trailblazers    
78 9:41:47.00 Mitchell Slobodian Senior Men 29267 1998 Nakkertok Nordic (ON) Laurentian U +12:20.40
79 9:42:00.00 Eamon Kelly Junior Men 31879 1999 Nakkertok Nordic (ON) U of Toronto +12:06.20
80 9:42:00.00 JM Gamble Masters Men DL8 1979 Highlands Trailblazers   +2:01.60
81 9:42:00.00 Colton Labine Senior Men DL55 1996 Laurentian Nordic Laurentian U +19:21.40
82 9:42:00.00 Erich Schultze Senior Men DL51 1991 University of Toronto U of Toronto +15:55.40
83 9:42:00.00 Eric Macneil Senior Men DL56 1998 Arrowhead Nordic Carleton U +19:44.30
84 9:42:00.00 Trevor Plestid Masters Men DL70 1964 XC Chelsea Masters   +14:56.10
85 9:42:00.00 Paul Junique Masters Men 34108 1948 Fondeurs-Laurentides   +4:36.80
86 9:42:00.00 Hayden Gorman Senior Men 33122 1995 Big Thunder Nordic Lakehead U +15:16.40
87 9:42:00.00 Alexis Lacroix Junior Men 33359 2000 Skinouk (QC) Équipe Ski Outaouais +13:00.10
88 9:42:00.00 Sebastien Bouffard Masters Men DL58 1982 Independent   +3:39.90
89 9:42:00.00 Brayden Scholey Junior Men 43080 2000 Kawartha Nordic   +13:00.30
90 9:42:00.00 Jason Connelly Senior Men 40385 1998 Waterloo Region U of Waterloo +24:43.70


Results are posted through an automated system by licenced clubs. For inquires about result corrections please contact the race organizer.

Copyright 2021 - Zone4 Systems zone4.ca       Privacy Policy     Delivery/Refund Policy     Terms of Service    Contact Zone4